sensor_id;sensor_type;location;lat;lon;timestamp;pressure;altitude;pressure_sealevel;temperature;humidity
77450;BME280;66536;53.150;18.172;2023-05-29T00:00:39;101591.75;;;11.43;60.07
77450;BME280;66536;53.150;18.172;2023-05-29T00:03:24;101588.69;;;11.38;60.00
77450;BME280;66536;53.150;18.172;2023-05-29T00:05:50;101590.11;;;11.32;59.96
77450;BME280;66536;53.150;18.172;2023-05-29T00:08:17;101589.02;;;11.25;60.13
77450;BME280;66536;53.150;18.172;2023-05-29T00:10:44;101589.07;;;11.21;60.11
77450;BME280;66536;53.150;18.172;2023-05-29T00:13:11;101586.84;;;11.16;60.38
77450;BME280;66536;53.150;18.172;2023-05-29T00:15:38;101585.73;;;11.14;60.64
77450;BME280;66536;53.150;18.172;2023-05-29T00:18:04;101585.52;;;11.11;60.60
77450;BME280;66536;53.150;18.172;2023-05-29T00:20:32;101589.57;;;11.09;60.61
77450;BME280;66536;53.150;18.172;2023-05-29T00:23:00;101586.45;;;11.08;60.87
77450;BME280;66536;53.150;18.172;2023-05-29T00:25:28;101586.73;;;11.07;60.89
77450;BME280;66536;53.150;18.172;2023-05-29T00:27:55;101586.96;;;11.06;60.88
77450;BME280;66536;53.150;18.172;2023-05-29T00:30:22;101586.55;;;11.04;60.99
77450;BME280;66536;53.150;18.172;2023-05-29T00:32:49;101583.41;;;11.02;60.94
77450;BME280;66536;53.150;18.172;2023-05-29T00:35:16;101589.22;;;10.99;61.37
77450;BME280;66536;53.150;18.172;2023-05-29T00:37:43;101593.14;;;10.97;61.30
77450;BME280;66536;53.150;18.172;2023-05-29T00:40:10;101596.46;;;10.94;61.31
77450;BME280;66536;53.150;18.172;2023-05-29T00:42:37;101598.50;;;10.91;61.45
77450;BME280;66536;53.150;18.172;2023-05-29T00:45:04;101597.64;;;10.89;61.57
77450;BME280;66536;53.150;18.172;2023-05-29T00:47:31;101597.27;;;10.86;61.78
77450;BME280;66536;53.150;18.172;2023-05-29T00:49:58;101592.14;;;10.84;61.80
77450;BME280;66536;53.150;18.172;2023-05-29T00:52:26;101597.52;;;10.84;62.01
77450;BME280;66536;53.150;18.172;2023-05-29T00:54:54;101596.16;;;10.84;61.82
77450;BME280;66536;53.150;18.172;2023-05-29T00:57:22;101597.27;;;10.83;61.93
77450;BME280;66536;53.150;18.172;2023-05-29T00:59:50;101595.95;;;10.83;61.89
77450;BME280;66536;53.150;18.172;2023-05-29T01:02:18;101594.04;;;10.81;61.87
77450;BME280;66536;53.150;18.172;2023-05-29T01:04:47;101597.70;;;10.81;62.20
77450;BME280;66536;53.150;18.172;2023-05-29T01:07:14;101595.98;;;10.81;62.16
77450;BME280;66536;53.150;18.172;2023-05-29T01:09:41;101596.37;;;10.81;62.20
77450;BME280;66536;53.150;18.172;2023-05-29T01:12:26;101602.33;;;10.79;62.17
77450;BME280;66536;53.150;18.172;2023-05-29T01:15:12;101600.39;;;10.76;62.22
77450;BME280;66536;53.150;18.172;2023-05-29T01:18:08;101602.61;;;10.75;62.25
77450;BME280;66536;53.150;18.172;2023-05-29T01:20:42;101607.05;;;10.72;62.39
77450;BME280;66536;53.150;18.172;2023-05-29T01:28:53;101602.09;;;10.62;62.76
77450;BME280;66536;53.150;18.172;2023-05-29T01:31:25;101602.08;;;10.58;62.82
77450;BME280;66536;53.150;18.172;2023-05-29T01:33:55;101598.45;;;10.54;62.96
77450;BME280;66536;53.150;18.172;2023-05-29T01:36:23;101598.21;;;10.50;63.03
77450;BME280;66536;53.150;18.172;2023-05-29T01:38:52;101598.31;;;10.48;63.27
77450;BME280;66536;53.150;18.172;2023-05-29T01:41:20;101598.23;;;10.44;63.35
77450;BME280;66536;53.150;18.172;2023-05-29T01:43:49;101598.58;;;10.39;63.43
77450;BME280;66536;53.150;18.172;2023-05-29T01:46:19;101598.84;;;10.35;63.37
77450;BME280;66536;53.150;18.172;2023-05-29T01:48:46;101596.35;;;10.33;63.78
77450;BME280;66536;53.150;18.172;2023-05-29T01:51:13;101599.66;;;10.33;63.87
77450;BME280;66536;53.150;18.172;2023-05-29T01:53:41;101595.55;;;10.32;63.77
77450;BME280;66536;53.150;18.172;2023-05-29T01:56:08;101592.13;;;10.29;63.88
77450;BME280;66536;53.150;18.172;2023-05-29T01:58:36;101596.89;;;10.26;63.99
77450;BME280;66536;53.150;18.172;2023-05-29T02:01:05;101597.39;;;10.23;64.24
77450;BME280;66536;53.150;18.172;2023-05-29T02:03:33;101597.55;;;10.20;64.13
77450;BME280;66536;53.150;18.172;2023-05-29T02:06:01;101598.80;;;10.17;64.39
77450;BME280;66536;53.150;18.172;2023-05-29T02:08:28;101596.90;;;10.12;64.41
77450;BME280;66536;53.150;18.172;2023-05-29T02:10:54;101599.35;;;10.09;64.45
77450;BME280;66536;53.150;18.172;2023-05-29T02:13:22;101597.95;;;10.07;64.72
77450;BME280;66536;53.150;18.172;2023-05-29T02:15:48;101596.52;;;10.06;64.77
77450;BME280;66536;53.150;18.172;2023-05-29T02:18:16;101597.32;;;10.04;64.71
77450;BME280;66536;53.150;18.172;2023-05-29T02:20:45;101596.07;;;10.00;64.92
77450;BME280;66536;53.150;18.172;2023-05-29T02:23:17;101595.61;;;9.98;64.82
77450;BME280;66536;53.150;18.172;2023-05-29T02:25:46;101600.47;;;9.95;64.98
77450;BME280;66536;53.150;18.172;2023-05-29T02:28:13;101602.17;;;9.92;65.21
77450;BME280;66536;53.150;18.172;2023-05-29T02:30:41;101604.75;;;9.88;65.23
77450;BME280;66536;53.150;18.172;2023-05-29T02:33:09;101604.95;;;9.85;65.30
77450;BME280;66536;53.150;18.172;2023-05-29T02:35:35;101604.39;;;9.82;65.46
77450;BME280;66536;53.150;18.172;2023-05-29T02:38:04;101605.60;;;9.78;65.56
77450;BME280;66536;53.150;18.172;2023-05-29T02:40:31;101604.13;;;9.75;65.77
77450;BME280;66536;53.150;18.172;2023-05-29T02:43:00;101602.77;;;9.74;65.69
77450;BME280;66536;53.150;18.172;2023-05-29T02:45:26;101606.23;;;9.74;65.85
77450;BME280;66536;53.150;18.172;2023-05-29T02:47:54;101604.18;;;9.76;65.85
77450;BME280;66536;53.150;18.172;2023-05-29T02:50:20;101603.23;;;9.77;66.00
77450;BME280;66536;53.150;18.172;2023-05-29T02:52:47;101599.94;;;9.79;66.05
77450;BME280;66536;53.150;18.172;2023-05-29T02:55:14;101599.10;;;9.82;65.97
77450;BME280;66536;53.150;18.172;2023-05-29T02:57:41;101599.58;;;9.85;66.18
77450;BME280;66536;53.150;18.172;2023-05-29T03:00:08;101602.13;;;9.88;66.17
77450;BME280;66536;53.150;18.172;2023-05-29T03:02:35;101600.86;;;9.92;66.21
77450;BME280;66536;53.150;18.172;2023-05-29T03:05:02;101594.97;;;9.95;66.17
77450;BME280;66536;53.150;18.172;2023-05-29T03:07:29;101592.73;;;9.99;66.33
77450;BME280;66536;53.150;18.172;2023-05-29T03:09:56;101596.81;;;10.01;66.26
77450;BME280;66536;53.150;18.172;2023-05-29T03:12:23;101599.05;;;10.03;66.15
77450;BME280;66536;53.150;18.172;2023-05-29T03:14:50;101599.39;;;10.04;66.23
77450;BME280;66536;53.150;18.172;2023-05-29T03:17:19;101601.54;;;10.07;66.19
77450;BME280;66536;53.150;18.172;2023-05-29T03:19:47;101604.65;;;10.11;66.16
77450;BME280;66536;53.150;18.172;2023-05-29T03:22:14;101607.52;;;10.16;66.14
77450;BME280;66536;53.150;18.172;2023-05-29T03:24:41;101607.38;;;10.20;66.07
77450;BME280;66536;53.150;18.172;2023-05-29T03:27:09;101612.45;;;10.24;66.25
77450;BME280;66536;53.150;18.172;2023-05-29T03:29:35;101612.73;;;10.27;66.20
77450;BME280;66536;53.150;18.172;2023-05-29T03:32:03;101614.25;;;10.32;66.16
77450;BME280;66536;53.150;18.172;2023-05-29T03:34:31;101616.88;;;10.36;66.20
77450;BME280;66536;53.150;18.172;2023-05-29T03:37:00;101616.92;;;10.40;66.05
77450;BME280;66536;53.150;18.172;2023-05-29T03:39:27;101621.05;;;10.45;65.89
77450;BME280;66536;53.150;18.172;2023-05-29T03:41:54;101619.09;;;10.52;65.88
77450;BME280;66536;53.150;18.172;2023-05-29T03:44:20;101618.68;;;10.58;65.77
77450;BME280;66536;53.150;18.172;2023-05-29T03:46:47;101619.01;;;10.65;65.57
77450;BME280;66536;53.150;18.172;2023-05-29T03:49:14;101624.88;;;10.72;65.54
77450;BME280;66536;53.150;18.172;2023-05-29T03:51:41;101623.27;;;10.81;65.49
77450;BME280;66536;53.150;18.172;2023-05-29T03:54:08;101621.30;;;10.91;65.28
77450;BME280;66536;53.150;18.172;2023-05-29T03:56:35;101620.98;;;11.01;65.16
77450;BME280;66536;53.150;18.172;2023-05-29T03:59:02;101620.27;;;11.10;65.12
77450;BME280;66536;53.150;18.172;2023-05-29T04:01:31;101624.15;;;11.16;64.95
77450;BME280;66536;53.150;18.172;2023-05-29T04:03:58;101619.50;;;11.22;64.71
77450;BME280;66536;53.150;18.172;2023-05-29T04:06:25;101627.06;;;11.31;64.58
77450;BME280;66536;53.150;18.172;2023-05-29T04:08:52;101623.33;;;11.37;64.51
77450;BME280;66536;53.150;18.172;2023-05-29T04:11:19;101625.85;;;11.44;64.41
77450;BME280;66536;53.150;18.172;2023-05-29T04:13:47;101633.00;;;11.51;64.33
77450;BME280;66536;53.150;18.172;2023-05-29T04:16:15;101639.91;;;11.58;64.06
77450;BME280;66536;53.150;18.172;2023-05-29T04:18:42;101639.45;;;11.64;64.07
77450;BME280;66536;53.150;18.172;2023-05-29T04:21:09;101637.01;;;11.73;63.91
77450;BME280;66536;53.150;18.172;2023-05-29T04:23:36;101635.11;;;11.81;63.90
77450;BME280;66536;53.150;18.172;2023-05-29T04:26:04;101633.70;;;11.87;63.67
77450;BME280;66536;53.150;18.172;2023-05-29T04:28:32;101636.38;;;11.94;63.59
77450;BME280;66536;53.150;18.172;2023-05-29T04:30:59;101635.90;;;12.00;63.50
77450;BME280;66536;53.150;18.172;2023-05-29T04:33:27;101631.11;;;12.08;63.32
77450;BME280;66536;53.150;18.172;2023-05-29T04:35:55;101634.11;;;12.16;63.36
77450;BME280;66536;53.150;18.172;2023-05-29T04:38:21;101630.93;;;12.25;63.01
77450;BME280;66536;53.150;18.172;2023-05-29T04:40:53;101631.69;;;12.31;62.85
77450;BME280;66536;53.150;18.172;2023-05-29T04:43:24;101627.32;;;12.38;62.68
77450;BME280;66536;53.150;18.172;2023-05-29T04:46:01;101626.91;;;12.46;62.58
77450;BME280;66536;53.150;18.172;2023-05-29T04:48:28;101625.22;;;12.55;62.64
77450;BME280;66536;53.150;18.172;2023-05-29T04:50:55;101624.84;;;12.65;62.50
77450;BME280;66536;53.150;18.172;2023-05-29T04:53:24;101629.02;;;12.74;62.13
77450;BME280;66536;53.150;18.172;2023-05-29T04:55:50;101632.36;;;12.83;62.13
77450;BME280;66536;53.150;18.172;2023-05-29T04:58:17;101630.46;;;12.94;62.00
77450;BME280;66536;53.150;18.172;2023-05-29T05:00:44;101624.45;;;13.05;61.69
77450;BME280;66536;53.150;18.172;2023-05-29T05:03:10;101632.19;;;13.17;61.63
77450;BME280;66536;53.150;18.172;2023-05-29T05:05:37;101626.30;;;13.28;61.20
77450;BME280;66536;53.150;18.172;2023-05-29T05:08:04;101635.74;;;13.35;60.95
77450;BME280;66536;53.150;18.172;2023-05-29T05:10:30;101631.77;;;13.43;60.81
77450;BME280;66536;53.150;18.172;2023-05-29T05:12:57;101631.80;;;13.52;60.42
77450;BME280;66536;53.150;18.172;2023-05-29T05:15:25;101632.95;;;13.61;60.28
77450;BME280;66536;53.150;18.172;2023-05-29T05:17:51;101634.80;;;13.71;60.05
77450;BME280;66536;53.150;18.172;2023-05-29T05:20:18;101639.38;;;13.81;59.75
77450;BME280;66536;53.150;18.172;2023-05-29T05:22:48;101639.88;;;13.91;58.98
77450;BME280;66536;53.150;18.172;2023-05-29T05:25:15;101642.28;;;14.00;58.82
77450;BME280;66536;53.150;18.172;2023-05-29T05:27:42;101641.85;;;14.11;58.97
77450;BME280;66536;53.150;18.172;2023-05-29T05:30:09;101638.52;;;14.23;58.58
77450;BME280;66536;53.150;18.172;2023-05-29T05:32:36;101640.70;;;14.36;58.46
77450;BME280;66536;53.150;18.172;2023-05-29T05:35:06;101644.48;;;14.49;58.14
77450;BME280;66536;53.150;18.172;2023-05-29T05:37:34;101646.12;;;14.60;58.25
77450;BME280;66536;53.150;18.172;2023-05-29T05:40:00;101645.90;;;14.71;58.43
77450;BME280;66536;53.150;18.172;2023-05-29T05:42:28;101643.67;;;14.82;57.95
77450;BME280;66536;53.150;18.172;2023-05-29T05:45:00;101650.31;;;14.91;57.92
77450;BME280;66536;53.150;18.172;2023-05-29T05:47:28;101653.58;;;15.01;58.00
77450;BME280;66536;53.150;18.172;2023-05-29T05:49:55;101656.04;;;15.14;57.63
77450;BME280;66536;53.150;18.172;2023-05-29T05:52:23;101656.80;;;15.29;57.39
77450;BME280;66536;53.150;18.172;2023-05-29T05:54:50;101663.27;;;15.45;57.00
77450;BME280;66536;53.150;18.172;2023-05-29T05:57:18;101666.89;;;15.61;56.41
77450;BME280;66536;53.150;18.172;2023-05-29T05:59:45;101664.61;;;15.72;55.87
77450;BME280;66536;53.150;18.172;2023-05-29T06:02:12;101660.29;;;15.81;55.63
77450;BME280;66536;53.150;18.172;2023-05-29T06:04:39;101664.79;;;15.94;55.27
77450;BME280;66536;53.150;18.172;2023-05-29T06:07:06;101664.97;;;16.07;54.88
77450;BME280;66536;53.150;18.172;2023-05-29T06:09:36;101668.48;;;16.20;54.09
77450;BME280;66536;53.150;18.172;2023-05-29T06:12:03;101669.73;;;16.30;53.45
77450;BME280;66536;53.150;18.172;2023-05-29T06:14:30;101670.74;;;16.36;53.19
77450;BME280;66536;53.150;18.172;2023-05-29T06:16:56;101666.30;;;16.41;52.46
77450;BME280;66536;53.150;18.172;2023-05-29T06:19:25;101663.88;;;16.47;52.10
77450;BME280;66536;53.150;18.172;2023-05-29T06:21:57;101663.13;;;16.52;51.17
77450;BME280;66536;53.150;18.172;2023-05-29T06:24:26;101658.89;;;16.60;52.04
77450;BME280;66536;53.150;18.172;2023-05-29T06:26:54;101652.48;;;16.70;51.17
77450;BME280;66536;53.150;18.172;2023-05-29T06:29:21;101652.17;;;16.77;51.19
77450;BME280;66536;53.150;18.172;2023-05-29T06:31:48;101656.75;;;16.91;50.94
77450;BME280;66536;53.150;18.172;2023-05-29T06:34:15;101660.98;;;17.01;50.07
77450;BME280;66536;53.150;18.172;2023-05-29T06:36:42;101662.09;;;17.08;49.55
77450;BME280;66536;53.150;18.172;2023-05-29T06:39:09;101657.77;;;17.15;49.40
77450;BME280;66536;53.150;18.172;2023-05-29T06:41:36;101656.55;;;17.21;49.40
77450;BME280;66536;53.150;18.172;2023-05-29T06:44:03;101656.08;;;17.27;49.37
77450;BME280;66536;53.150;18.172;2023-05-29T06:46:31;101660.98;;;17.35;48.68
77450;BME280;66536;53.150;18.172;2023-05-29T06:48:59;101662.70;;;17.40;48.17
77450;BME280;66536;53.150;18.172;2023-05-29T06:51:26;101656.69;;;17.42;47.91
77450;BME280;66536;53.150;18.172;2023-05-29T06:54:12;101663.17;;;17.48;47.67
77450;BME280;66536;53.150;18.172;2023-05-29T06:56:40;101663.68;;;17.56;47.83
77450;BME280;66536;53.150;18.172;2023-05-29T06:59:06;101654.25;;;17.67;47.98
77450;BME280;66536;53.150;18.172;2023-05-29T07:01:33;101657.08;;;17.79;48.09
77450;BME280;66536;53.150;18.172;2023-05-29T07:04:03;101657.98;;;17.84;47.71
77450;BME280;66536;53.150;18.172;2023-05-29T07:06:30;101658.69;;;17.87;47.64
77450;BME280;66536;53.150;18.172;2023-05-29T07:08:58;101661.05;;;17.90;47.53
77450;BME280;66536;53.150;18.172;2023-05-29T07:11:24;101667.77;;;17.99;47.75
77450;BME280;66536;53.150;18.172;2023-05-29T07:13:54;101669.37;;;18.10;47.39
77450;BME280;66536;53.150;18.172;2023-05-29T07:16:22;101672.18;;;18.20;47.19
77450;BME280;66536;53.150;18.172;2023-05-29T07:18:48;101675.29;;;18.31;47.19
77450;BME280;66536;53.150;18.172;2023-05-29T07:21:17;101674.63;;;18.42;47.04
77450;BME280;66536;53.150;18.172;2023-05-29T07:23:44;101673.90;;;18.52;46.73
77450;BME280;66536;53.150;18.172;2023-05-29T07:26:11;101679.97;;;18.60;46.08
77450;BME280;66536;53.150;18.172;2023-05-29T07:28:39;101675.73;;;18.58;45.82
77450;BME280;66536;53.150;18.172;2023-05-29T07:31:06;101679.48;;;18.63;46.15
77450;BME280;66536;53.150;18.172;2023-05-29T07:33:34;101684.65;;;18.75;45.88
77450;BME280;66536;53.150;18.172;2023-05-29T07:36:01;101682.86;;;18.89;45.56
77450;BME280;66536;53.150;18.172;2023-05-29T07:38:28;101684.12;;;19.02;45.59
77450;BME280;66536;53.150;18.172;2023-05-29T07:40:54;101690.16;;;19.08;45.36
77450;BME280;66536;53.150;18.172;2023-05-29T07:43:30;101686.34;;;19.15;45.41
77450;BME280;66536;53.150;18.172;2023-05-29T07:45:59;101688.98;;;19.28;44.95
77450;BME280;66536;53.150;18.172;2023-05-29T07:48:26;101691.61;;;19.38;44.17
77450;BME280;66536;53.150;18.172;2023-05-29T07:50:53;101687.41;;;19.29;43.95
77450;BME280;66536;53.150;18.172;2023-05-29T07:53:20;101696.48;;;19.28;44.55
77450;BME280;66536;53.150;18.172;2023-05-29T07:55:47;101694.83;;;19.41;44.16
77450;BME280;66536;53.150;18.172;2023-05-29T07:58:14;101691.91;;;19.56;43.87
77450;BME280;66536;53.150;18.172;2023-05-29T08:00:44;101692.10;;;19.70;43.67
77450;BME280;66536;53.150;18.172;2023-05-29T08:03:10;101689.32;;;19.85;43.45
77450;BME280;66536;53.150;18.172;2023-05-29T08:05:48;101690.60;;;20.02;43.03
77450;BME280;66536;53.150;18.172;2023-05-29T08:08:17;101692.97;;;20.15;42.64
77450;BME280;66536;53.150;18.172;2023-05-29T08:10:46;101694.53;;;20.28;42.39
77450;BME280;66536;53.150;18.172;2023-05-29T08:13:12;101688.91;;;20.39;42.12
77450;BME280;66536;53.150;18.172;2023-05-29T08:15:40;101695.62;;;20.55;41.46
77450;BME280;66536;53.150;18.172;2023-05-29T08:18:06;101695.41;;;20.66;40.71
77450;BME280;66536;53.150;18.172;2023-05-29T08:20:33;101700.29;;;20.69;40.58
77450;BME280;66536;53.150;18.172;2023-05-29T08:23:01;101702.32;;;20.52;40.12
77450;BME280;66536;53.150;18.172;2023-05-29T08:25:28;101703.27;;;20.48;40.07
77450;BME280;66536;53.150;18.172;2023-05-29T08:27:54;101706.77;;;20.46;40.40
77450;BME280;66536;53.150;18.172;2023-05-29T08:30:21;101704.58;;;20.42;40.80
77450;BME280;66536;53.150;18.172;2023-05-29T08:32:48;101701.48;;;20.45;41.22
77450;BME280;66536;53.150;18.172;2023-05-29T08:35:16;101702.73;;;20.55;40.86
77450;BME280;66536;53.150;18.172;2023-05-29T08:37:43;101712.23;;;20.58;39.82
77450;BME280;66536;53.150;18.172;2023-05-29T08:40:10;101706.11;;;20.53;39.69
77450;BME280;66536;53.150;18.172;2023-05-29T08:42:45;101700.73;;;20.43;39.93
77450;BME280;66536;53.150;18.172;2023-05-29T08:45:14;101706.47;;;20.46;38.99
77450;BME280;66536;53.150;18.172;2023-05-29T08:47:42;101704.80;;;20.47;38.88
77450;BME280;66536;53.150;18.172;2023-05-29T08:50:09;101707.67;;;20.46;38.65
77450;BME280;66536;53.150;18.172;2023-05-29T08:52:37;101704.73;;;20.57;38.90
77450;BME280;66536;53.150;18.172;2023-05-29T08:55:05;101702.35;;;20.77;38.66
77450;BME280;66536;53.150;18.172;2023-05-29T08:57:32;101702.77;;;20.91;38.77
77450;BME280;66536;53.150;18.172;2023-05-29T09:00:01;101704.70;;;21.10;38.34
77450;BME280;66536;53.150;18.172;2023-05-29T09:02:32;101705.31;;;21.33;38.49
77450;BME280;66536;53.150;18.172;2023-05-29T09:04:59;101703.75;;;21.49;38.00
77450;BME280;66536;53.150;18.172;2023-05-29T09:07:26;101703.11;;;21.64;37.97
77450;BME280;66536;53.150;18.172;2023-05-29T09:09:53;101702.55;;;21.74;37.45
77450;BME280;66536;53.150;18.172;2023-05-29T09:12:19;101705.09;;;22.03;37.28
77450;BME280;66536;53.150;18.172;2023-05-29T09:14:46;101703.17;;;22.23;36.56
77450;BME280;66536;53.150;18.172;2023-05-29T09:17:14;101703.55;;;22.27;36.55
77450;BME280;66536;53.150;18.172;2023-05-29T09:19:41;101698.83;;;22.30;35.90
77450;BME280;66536;53.150;18.172;2023-05-29T09:22:10;101705.00;;;22.30;36.01
77450;BME280;66536;53.150;18.172;2023-05-29T09:24:41;101710.27;;;22.29;35.49
77450;BME280;66536;53.150;18.172;2023-05-29T09:27:09;101711.91;;;22.33;35.00
77450;BME280;66536;53.150;18.172;2023-05-29T09:29:40;101704.83;;;22.59;35.22
77450;BME280;66536;53.150;18.172;2023-05-29T09:32:09;101703.53;;;22.94;34.78
77450;BME280;66536;53.150;18.172;2023-05-29T09:34:36;101703.02;;;23.14;34.39
77450;BME280;66536;53.150;18.172;2023-05-29T09:37:06;101707.34;;;22.94;34.42
77450;BME280;66536;53.150;18.172;2023-05-29T09:39:46;101702.80;;;22.66;34.95
77450;BME280;66536;53.150;18.172;2023-05-29T09:42:15;101705.12;;;22.52;35.10
77450;BME280;66536;53.150;18.172;2023-05-29T09:44:45;101702.67;;;22.44;35.38
77450;BME280;66536;53.150;18.172;2023-05-29T09:47:16;101698.88;;;22.30;35.26
77450;BME280;66536;53.150;18.172;2023-05-29T09:49:44;101704.94;;;22.15;35.42
77450;BME280;66536;53.150;18.172;2023-05-29T09:52:12;101696.96;;;22.25;35.31
77450;BME280;66536;53.150;18.172;2023-05-29T09:54:43;101694.54;;;22.14;35.60
77450;BME280;66536;53.150;18.172;2023-05-29T09:57:14;101693.23;;;21.93;35.58
77450;BME280;66536;53.150;18.172;2023-05-29T09:59:42;101693.63;;;21.86;35.63
77450;BME280;66536;53.150;18.172;2023-05-29T10:02:11;101692.66;;;21.96;35.58
77450;BME280;66536;53.150;18.172;2023-05-29T10:04:40;101692.02;;;22.01;35.38
77450;BME280;66536;53.150;18.172;2023-05-29T10:07:10;101692.74;;;22.00;35.15
77450;BME280;66536;53.150;18.172;2023-05-29T10:09:42;101693.02;;;21.91;35.01
77450;BME280;66536;53.150;18.172;2023-05-29T10:12:11;101694.86;;;21.92;35.14
77450;BME280;66536;53.150;18.172;2023-05-29T10:14:39;101690.83;;;21.97;35.14
77450;BME280;66536;53.150;18.172;2023-05-29T10:17:10;101688.89;;;22.23;35.10
77450;BME280;66536;53.150;18.172;2023-05-29T10:19:40;101683.79;;;22.49;34.57
77450;BME280;66536;53.150;18.172;2023-05-29T10:22:09;101679.91;;;22.80;34.33
77450;BME280;66536;53.150;18.172;2023-05-29T10:24:37;101677.70;;;23.44;33.91
77450;BME280;66536;53.150;18.172;2023-05-29T10:27:04;101679.33;;;23.78;33.39
77450;BME280;66536;53.150;18.172;2023-05-29T10:29:37;101681.64;;;23.83;33.01
77450;BME280;66536;53.150;18.172;2023-05-29T10:32:20;101681.70;;;23.93;32.74
77450;BME280;66536;53.150;18.172;2023-05-29T10:35:12;101675.85;;;23.86;32.68
77450;BME280;66536;53.150;18.172;2023-05-29T10:37:52;101679.75;;;23.54;32.79
77450;BME280;66536;53.150;18.172;2023-05-29T10:40:24;101677.92;;;23.31;33.11
77450;BME280;66536;53.150;18.172;2023-05-29T10:42:53;101671.27;;;22.95;33.02
77450;BME280;66536;53.150;18.172;2023-05-29T10:45:48;101678.19;;;22.62;33.56
77450;BME280;66536;53.150;18.172;2023-05-29T10:48:36;101676.04;;;22.53;33.91
77450;BME280;66536;53.150;18.172;2023-05-29T10:51:05;101678.60;;;22.56;33.73
77450;BME280;66536;53.150;18.172;2023-05-29T10:53:33;101674.16;;;22.78;33.55
77450;BME280;66536;53.150;18.172;2023-05-29T10:56:00;101670.63;;;23.15;33.10
77450;BME280;66536;53.150;18.172;2023-05-29T10:58:30;101674.02;;;23.44;32.45
77450;BME280;66536;53.150;18.172;2023-05-29T11:00:57;101674.31;;;23.55;32.08
77450;BME280;66536;53.150;18.172;2023-05-29T11:03:29;101669.13;;;23.58;31.09
77450;BME280;66536;53.150;18.172;2023-05-29T11:05:59;101674.15;;;23.56;30.76
77450;BME280;66536;53.150;18.172;2023-05-29T11:08:33;101663.77;;;23.64;30.86
77450;BME280;66536;53.150;18.172;2023-05-29T11:11:02;101669.21;;;23.80;30.97
77450;BME280;66536;53.150;18.172;2023-05-29T11:13:33;101664.65;;;23.86;30.87
77450;BME280;66536;53.150;18.172;2023-05-29T11:16:35;101669.69;;;23.81;30.35
77450;BME280;66536;53.150;18.172;2023-05-29T11:19:04;101657.09;;;23.84;30.71
77450;BME280;66536;53.150;18.172;2023-05-29T11:24:29;101658.84;;;23.66;30.04
77450;BME280;66536;53.150;18.172;2023-05-29T11:26:58;101667.56;;;23.40;29.80
77450;BME280;66536;53.150;18.172;2023-05-29T11:29:28;101660.59;;;23.14;29.83
77450;BME280;66536;53.150;18.172;2023-05-29T11:32:02;101658.43;;;23.15;29.88
77450;BME280;66536;53.150;18.172;2023-05-29T11:34:31;101651.25;;;23.36;29.79
77450;BME280;66536;53.150;18.172;2023-05-29T11:36:59;101647.52;;;23.67;29.75
77450;BME280;66536;53.150;18.172;2023-05-29T11:39:26;101650.80;;;23.99;28.94
77450;BME280;66536;53.150;18.172;2023-05-29T11:41:54;101648.67;;;24.14;28.49
77450;BME280;66536;53.150;18.172;2023-05-29T11:44:24;101648.68;;;24.14;28.62
77450;BME280;66536;53.150;18.172;2023-05-29T11:47:04;101644.69;;;24.21;27.98
77450;BME280;66536;53.150;18.172;2023-05-29T11:49:31;101645.64;;;24.21;27.56
77450;BME280;66536;53.150;18.172;2023-05-29T11:52:09;101639.96;;;24.23;27.60
77450;BME280;66536;53.150;18.172;2023-05-29T11:54:36;101634.67;;;24.56;27.62
77450;BME280;66536;53.150;18.172;2023-05-29T11:57:04;101631.77;;;24.64;27.02
77450;BME280;66536;53.150;18.172;2023-05-29T11:59:32;101635.70;;;24.69;27.16
77450;BME280;66536;53.150;18.172;2023-05-29T12:02:02;101640.52;;;25.03;26.71
77450;BME280;66536;53.150;18.172;2023-05-29T12:04:29;101640.11;;;25.29;26.60
77450;BME280;66536;53.150;18.172;2023-05-29T12:06:56;101637.23;;;25.25;26.31
77450;BME280;66536;53.150;18.172;2023-05-29T12:09:24;101638.02;;;25.00;26.52
77450;BME280;66536;53.150;18.172;2023-05-29T12:11:51;101638.17;;;24.72;27.03
77450;BME280;66536;53.150;18.172;2023-05-29T12:14:19;101635.42;;;24.61;27.18
77450;BME280;66536;53.150;18.172;2023-05-29T12:16:46;101630.75;;;24.63;27.06
77450;BME280;66536;53.150;18.172;2023-05-29T12:19:13;101622.82;;;24.62;26.77
77450;BME280;66536;53.150;18.172;2023-05-29T12:21:41;101624.81;;;24.63;26.85
77450;BME280;66536;53.150;18.172;2023-05-29T12:24:10;101624.66;;;24.57;26.83
77450;BME280;66536;53.150;18.172;2023-05-29T12:26:37;101629.86;;;24.54;26.92
77450;BME280;66536;53.150;18.172;2023-05-29T12:29:04;101625.65;;;24.51;26.56
77450;BME280;66536;53.150;18.172;2023-05-29T12:31:32;101623.14;;;24.46;26.68
77450;BME280;66536;53.150;18.172;2023-05-29T12:34:11;101618.77;;;24.50;27.09
77450;BME280;66536;53.150;18.172;2023-05-29T12:36:40;101622.02;;;24.46;26.68
77450;BME280;66536;53.150;18.172;2023-05-29T12:39:07;101617.92;;;24.35;26.60
77450;BME280;66536;53.150;18.172;2023-05-29T12:41:36;101618.42;;;24.31;26.91
77450;BME280;66536;53.150;18.172;2023-05-29T12:44:04;101617.14;;;24.34;26.86
77450;BME280;66536;53.150;18.172;2023-05-29T12:46:37;101616.96;;;24.36;26.62
77450;BME280;66536;53.150;18.172;2023-05-29T12:49:13;101611.55;;;24.39;26.82
77450;BME280;66536;53.150;18.172;2023-05-29T12:51:42;101613.28;;;24.56;26.40
77450;BME280;66536;53.150;18.172;2023-05-29T12:54:11;101610.70;;;24.77;26.35
77450;BME280;66536;53.150;18.172;2023-05-29T12:56:38;101611.02;;;24.91;25.98